createdAt,value
2019-01-23T00:00:29.718Z,11.63
2019-01-23T00:10:35.319Z,11.70
2019-01-23T00:20:41.062Z,12.43
2019-01-23T00:30:46.461Z,11.20
2019-01-23T00:40:51.918Z,10.97
2019-01-23T00:50:57.557Z,10.60
2019-01-23T01:01:03.141Z,9.70
2019-01-23T01:11:08.531Z,11.23
2019-01-23T01:21:13.955Z,10.17
2019-01-23T01:31:19.529Z,10.10
2019-01-23T01:41:24.842Z,10.03
2019-01-23T01:51:30.217Z,10.57
2019-01-23T02:01:36.137Z,10.80
2019-01-23T02:11:42.702Z,9.60
2019-01-23T02:21:48.153Z,9.87
2019-01-23T02:31:53.616Z,10.13
2019-01-23T02:41:58.939Z,9.17
2019-01-23T02:52:04.428Z,9.50
2019-01-23T03:02:09.809Z,9.63
2019-01-23T03:12:16.404Z,9.30
2019-01-23T03:22:21.753Z,9.27
2019-01-23T03:32:27.112Z,8.77
2019-01-23T03:42:32.548Z,9.53
2019-01-23T03:52:39.363Z,8.87
2019-01-23T04:02:44.754Z,9.20
2019-01-23T04:12:50.128Z,9.30
2019-01-23T04:22:55.711Z,8.73
2019-01-23T04:33:01.226Z,8.40
2019-01-23T04:43:06.691Z,8.10
2019-01-23T04:53:18.146Z,8.73
2019-01-23T05:03:23.704Z,8.40
2019-01-23T05:13:29.164Z,8.27
2019-01-23T05:23:34.575Z,8.73
2019-01-23T05:33:40.027Z,8.67
2019-01-23T05:43:45.475Z,8.23
2019-01-23T05:53:50.936Z,8.70
2019-01-23T06:03:56.337Z,7.83
2019-01-23T06:14:01.929Z,7.90
2019-01-23T06:24:07.520Z,8.13
2019-01-23T06:34:13.034Z,7.50
2019-01-23T06:44:18.807Z,7.97
2019-01-23T06:54:24.235Z,8.10
2019-01-23T07:04:29.720Z,7.63
2019-01-23T07:14:35.224Z,8.03
2019-01-23T07:24:40.747Z,9.87
2019-01-23T07:34:46.113Z,13.23
2019-01-23T07:44:51.636Z,8.23
2019-01-23T07:54:58.347Z,9.67
2019-01-23T08:05:03.720Z,19.50
2019-01-23T08:15:24.414Z,8.97
2019-01-23T08:25:30.403Z,10.80
2019-01-23T08:35:36.481Z,9.17
2019-01-23T08:45:42.101Z,8.17
2019-01-23T08:55:53.502Z,8.30
2019-01-23T09:05:54.839Z,8.47
2019-01-23T09:16:00.350Z,14.03
2019-01-23T09:26:05.936Z,15.50
2019-01-23T09:37:06.027Z,16.47
2019-01-23T09:47:29.115Z,16.17
2019-01-23T09:57:38.400Z,10.10
2019-01-23T10:07:43.755Z,14.83
2019-01-23T10:17:50.970Z,17.07
2019-01-23T10:27:56.543Z,33.70
2019-01-23T10:38:02.034Z,26.47
2019-01-23T10:48:08.079Z,30.37
2019-01-23T10:58:13.572Z,27.53
2019-01-23T11:08:20.817Z,25.07
2019-01-23T11:18:26.321Z,26.37
2019-01-23T11:28:31.956Z,20.93
2019-01-23T11:38:37.321Z,20.23
2019-01-23T11:48:42.703Z,26.83
2019-01-23T11:58:48.123Z,25.23
2019-01-23T12:08:53.519Z,24.40
2019-01-23T12:18:59.209Z,23.77
2019-01-23T12:29:06.365Z,23.67
2019-01-23T12:39:11.716Z,22.40
2019-01-23T12:49:17.137Z,20.33
2019-01-23T12:59:22.536Z,21.40
2019-01-23T13:09:30.184Z,21.13
2019-01-23T13:19:36.553Z,20.53
2019-01-23T13:29:41.977Z,21.13
2019-01-23T13:39:47.487Z,20.50
2019-01-23T13:49:53.367Z,20.33
2019-01-23T13:59:59.613Z,19.97
2019-01-23T14:10:05.369Z,19.57
2019-01-23T14:20:13.332Z,19.47
2019-01-23T14:30:40.265Z,19.77
2019-01-23T14:40:45.907Z,20.07
2019-01-23T14:50:51.249Z,19.10
2019-01-23T15:00:56.635Z,19.00
2019-01-23T15:11:02.068Z,18.50
2019-01-23T15:21:07.812Z,18.33
2019-01-23T15:31:13.471Z,18.63
2019-01-23T15:41:19.039Z,18.00
2019-01-23T15:51:24.544Z,18.40
2019-01-23T16:01:30.065Z,17.70
2019-01-23T16:11:35.499Z,17.83
2019-01-23T16:21:45.609Z,16.53
2019-01-23T16:31:48.198Z,17.30
2019-01-23T16:41:53.550Z,17.80
2019-01-23T16:51:59.540Z,17.07
2019-01-23T17:02:05.291Z,17.10
2019-01-23T17:12:12.470Z,18.03
2019-01-23T17:22:19.283Z,16.77
2019-01-23T17:32:24.755Z,18.73
2019-01-23T17:42:30.117Z,18.00
2019-01-23T17:52:35.511Z,18.40
2019-01-23T18:02:43.815Z,17.83
2019-01-23T18:12:49.177Z,17.63
2019-01-23T18:22:54.575Z,17.07
2019-01-23T18:33:02.154Z,16.47
2019-01-23T18:44:11.368Z,16.23
2019-01-23T18:54:16.859Z,15.90
2019-01-23T19:04:22.423Z,15.67
2019-01-23T19:14:27.786Z,15.80
2019-01-23T19:24:33.310Z,15.17
2019-01-23T19:34:39.145Z,14.77
2019-01-23T19:44:45.093Z,15.17
2019-01-23T19:54:50.631Z,14.67
2019-01-23T20:04:56.367Z,14.30
2019-01-23T20:15:01.886Z,14.03
2019-01-23T20:25:12.147Z,13.90
2019-01-23T20:35:19.724Z,14.03
2019-01-23T20:45:25.372Z,14.40
2019-01-23T20:55:30.968Z,13.67
2019-01-23T21:05:37.575Z,13.90
2019-01-23T21:15:43.000Z,13.57
2019-01-23T21:25:48.364Z,13.27
2019-01-23T21:35:53.779Z,13.13
2019-01-23T21:45:59.176Z,12.10
2019-01-23T21:56:04.710Z,12.50
2019-01-23T22:06:10.130Z,13.00
2019-01-23T22:16:15.572Z,12.47
2019-01-23T22:26:20.971Z,13.30
2019-01-23T22:36:26.348Z,12.17
2019-01-23T22:46:31.835Z,12.03
2019-01-23T22:56:37.372Z,12.60
2019-01-23T23:06:42.818Z,12.17
2019-01-23T23:16:48.376Z,11.97
2019-01-23T23:26:54.093Z,12.23
2019-01-23T23:36:59.529Z,12.07
2019-01-23T23:47:04.907Z,39.30
2019-01-23T23:57:10.571Z,39.70
